sensor_id;sensor_type;location;lat;lon;timestamp;P1;durP1;ratioP1;P2;durP2;ratioP2
49177;SDS011;35016;55.674;37.468;2023-10-19T00:00:41;7.65;;;3.33;;
49177;SDS011;35016;55.674;37.468;2023-10-19T00:03:12;7.38;;;2.85;;
49177;SDS011;35016;55.674;37.468;2023-10-19T00:05:40;7.43;;;2.47;;
49177;SDS011;35016;55.674;37.468;2023-10-19T00:08:12;6.80;;;2.53;;
49177;SDS011;35016;55.674;37.468;2023-10-19T00:10:40;7.82;;;2.75;;
49177;SDS011;35016;55.674;37.468;2023-10-19T00:13:10;6.93;;;2.70;;
49177;SDS011;35016;55.674;37.468;2023-10-19T00:15:38;8.00;;;2.88;;
49177;SDS011;35016;55.674;37.468;2023-10-19T00:18:16;8.10;;;2.97;;
49177;SDS011;35016;55.674;37.468;2023-10-19T00:20:44;8.13;;;2.78;;
49177;SDS011;35016;55.674;37.468;2023-10-19T00:23:12;7.05;;;2.70;;
49177;SDS011;35016;55.674;37.468;2023-10-19T00:25:40;7.80;;;3.35;;
49177;SDS011;35016;55.674;37.468;2023-10-19T00:28:08;7.65;;;3.05;;
49177;SDS011;35016;55.674;37.468;2023-10-19T00:30:35;6.65;;;2.78;;
49177;SDS011;35016;55.674;37.468;2023-10-19T00:33:03;6.85;;;2.28;;
49177;SDS011;35016;55.674;37.468;2023-10-19T00:35:44;8.95;;;3.58;;
49177;SDS011;35016;55.674;37.468;2023-10-19T00:38:14;7.93;;;3.03;;
49177;SDS011;35016;55.674;37.468;2023-10-19T00:40:54;7.35;;;2.95;;
49177;SDS011;35016;55.674;37.468;2023-10-19T00:43:33;8.15;;;3.05;;
49177;SDS011;35016;55.674;37.468;2023-10-19T00:46:13;7.95;;;3.22;;
49177;SDS011;35016;55.674;37.468;2023-10-19T00:48:43;6.85;;;3.05;;
49177;SDS011;35016;55.674;37.468;2023-10-19T00:51:13;8.18;;;2.78;;
49177;SDS011;35016;55.674;37.468;2023-10-19T00:54:03;7.65;;;2.90;;
49177;SDS011;35016;55.674;37.468;2023-10-19T00:56:37;6.53;;;2.72;;
49177;SDS011;35016;55.674;37.468;2023-10-19T00:59:08;10.75;;;3.28;;
49177;SDS011;35016;55.674;37.468;2023-10-19T01:01:47;8.18;;;3.13;;
49177;SDS011;35016;55.674;37.468;2023-10-19T01:04:21;8.23;;;3.22;;
49177;SDS011;35016;55.674;37.468;2023-10-19T01:06:59;7.43;;;2.92;;
49177;SDS011;35016;55.674;37.468;2023-10-19T01:09:43;7.78;;;3.05;;
49177;SDS011;35016;55.674;37.468;2023-10-19T01:12:11;8.48;;;3.78;;
49177;SDS011;35016;55.674;37.468;2023-10-19T01:15:12;7.30;;;2.47;;
49177;SDS011;35016;55.674;37.468;2023-10-19T01:17:41;7.53;;;3.15;;
49177;SDS011;35016;55.674;37.468;2023-10-19T01:20:12;8.32;;;3.13;;
49177;SDS011;35016;55.674;37.468;2023-10-19T01:23:04;7.68;;;3.72;;
49177;SDS011;35016;55.674;37.468;2023-10-19T01:25:45;8.48;;;3.22;;
49177;SDS011;35016;55.674;37.468;2023-10-19T01:28:27;7.93;;;3.55;;
49177;SDS011;35016;55.674;37.468;2023-10-19T01:31:17;7.57;;;3.08;;
49177;SDS011;35016;55.674;37.468;2023-10-19T01:33:57;7.07;;;2.72;;
49177;SDS011;35016;55.674;37.468;2023-10-19T01:36:26;6.85;;;2.83;;
49177;SDS011;35016;55.674;37.468;2023-10-19T01:38:55;7.35;;;2.88;;
49177;SDS011;35016;55.674;37.468;2023-10-19T01:41:28;9.13;;;3.80;;
49177;SDS011;35016;55.674;37.468;2023-10-19T01:43:58;6.97;;;2.75;;
49177;SDS011;35016;55.674;37.468;2023-10-19T01:46:33;8.45;;;3.30;;
49177;SDS011;35016;55.674;37.468;2023-10-19T01:49:03;7.93;;;2.97;;
49177;SDS011;35016;55.674;37.468;2023-10-19T01:51:32;8.25;;;3.35;;
49177;SDS011;35016;55.674;37.468;2023-10-19T01:54:05;7.90;;;3.33;;
49177;SDS011;35016;55.674;37.468;2023-10-19T01:56:34;8.38;;;3.40;;
49177;SDS011;35016;55.674;37.468;2023-10-19T01:59:03;8.35;;;3.55;;
49177;SDS011;35016;55.674;37.468;2023-10-19T02:01:31;7.50;;;2.88;;
49177;SDS011;35016;55.674;37.468;2023-10-19T02:04:03;9.27;;;4.13;;
49177;SDS011;35016;55.674;37.468;2023-10-19T02:06:33;7.88;;;3.55;;
49177;SDS011;35016;55.674;37.468;2023-10-19T02:09:06;8.18;;;3.58;;
49177;SDS011;35016;55.674;37.468;2023-10-19T02:11:52;7.70;;;3.15;;
49177;SDS011;35016;55.674;37.468;2023-10-19T02:14:26;8.90;;;3.80;;
49177;SDS011;35016;55.674;37.468;2023-10-19T02:16:59;7.17;;;3.30;;
49177;SDS011;35016;55.674;37.468;2023-10-19T02:19:30;8.90;;;3.42;;
49177;SDS011;35016;55.674;37.468;2023-10-19T02:22:03;8.00;;;3.03;;
49177;SDS011;35016;55.674;37.468;2023-10-19T02:24:35;8.00;;;3.13;;
49177;SDS011;35016;55.674;37.468;2023-10-19T02:27:02;7.90;;;3.75;;
49177;SDS011;35016;55.674;37.468;2023-10-19T02:29:31;9.18;;;2.97;;
49177;SDS011;35016;55.674;37.468;2023-10-19T02:31:58;6.70;;;2.85;;
49177;SDS011;35016;55.674;37.468;2023-10-19T02:34:32;8.48;;;3.60;;
49177;SDS011;35016;55.674;37.468;2023-10-19T02:37:02;6.97;;;2.85;;
49177;SDS011;35016;55.674;37.468;2023-10-19T02:39:29;8.10;;;3.47;;
49177;SDS011;35016;55.674;37.468;2023-10-19T02:41:57;8.38;;;3.15;;
49177;SDS011;35016;55.674;37.468;2023-10-19T02:44:28;8.18;;;3.15;;
49177;SDS011;35016;55.674;37.468;2023-10-19T02:46:57;8.18;;;3.85;;
49177;SDS011;35016;55.674;37.468;2023-10-19T02:49:27;8.93;;;3.47;;
49177;SDS011;35016;55.674;37.468;2023-10-19T02:51:56;7.38;;;3.20;;
49177;SDS011;35016;55.674;37.468;2023-10-19T02:54:31;8.50;;;3.85;;
49177;SDS011;35016;55.674;37.468;2023-10-19T02:57:03;7.97;;;3.38;;
49177;SDS011;35016;55.674;37.468;2023-10-19T02:59:34;9.07;;;3.63;;
49177;SDS011;35016;55.674;37.468;2023-10-19T03:02:02;7.13;;;3.08;;
49177;SDS011;35016;55.674;37.468;2023-10-19T03:04:34;8.77;;;3.75;;
49177;SDS011;35016;55.674;37.468;2023-10-19T03:07:05;7.82;;;2.90;;
49177;SDS011;35016;55.674;37.468;2023-10-19T03:09:35;7.07;;;2.67;;
49177;SDS011;35016;55.674;37.468;2023-10-19T03:12:05;7.20;;;2.70;;
49177;SDS011;35016;55.674;37.468;2023-10-19T03:14:37;7.75;;;3.05;;
49177;SDS011;35016;55.674;37.468;2023-10-19T03:17:05;7.82;;;2.88;;
49177;SDS011;35016;55.674;37.468;2023-10-19T03:19:35;7.38;;;3.15;;
49177;SDS011;35016;55.674;37.468;2023-10-19T03:22:03;7.07;;;2.80;;
49177;SDS011;35016;55.674;37.468;2023-10-19T03:24:33;6.60;;;2.33;;
49177;SDS011;35016;55.674;37.468;2023-10-19T03:27:08;7.55;;;2.80;;
49177;SDS011;35016;55.674;37.468;2023-10-19T03:29:45;7.90;;;3.60;;
49177;SDS011;35016;55.674;37.468;2023-10-19T03:32:15;8.25;;;3.80;;
49177;SDS011;35016;55.674;37.468;2023-10-19T03:34:44;6.78;;;2.80;;
49177;SDS011;35016;55.674;37.468;2023-10-19T03:37:15;7.85;;;2.65;;
49177;SDS011;35016;55.674;37.468;2023-10-19T03:39:44;7.47;;;3.42;;
49177;SDS011;35016;55.674;37.468;2023-10-19T03:42:13;8.75;;;3.33;;
49177;SDS011;35016;55.674;37.468;2023-10-19T03:44:41;8.10;;;3.47;;
49177;SDS011;35016;55.674;37.468;2023-10-19T03:47:17;6.90;;;2.92;;
49177;SDS011;35016;55.674;37.468;2023-10-19T03:50:00;7.43;;;2.95;;
49177;SDS011;35016;55.674;37.468;2023-10-19T03:52:30;8.05;;;3.22;;
49177;SDS011;35016;55.674;37.468;2023-10-19T03:54:58;7.93;;;3.10;;
49177;SDS011;35016;55.674;37.468;2023-10-19T03:57:25;7.28;;;3.35;;
49177;SDS011;35016;55.674;37.468;2023-10-19T03:59:56;7.15;;;3.28;;
49177;SDS011;35016;55.674;37.468;2023-10-19T04:02:24;7.38;;;2.88;;
49177;SDS011;35016;55.674;37.468;2023-10-19T04:04:54;7.60;;;2.95;;
49177;SDS011;35016;55.674;37.468;2023-10-19T04:07:24;9.23;;;3.67;;
49177;SDS011;35016;55.674;37.468;2023-10-19T04:09:58;8.13;;;3.00;;
49177;SDS011;35016;55.674;37.468;2023-10-19T04:12:37;8.05;;;3.55;;
49177;SDS011;35016;55.674;37.468;2023-10-19T04:15:09;8.27;;;3.42;;
49177;SDS011;35016;55.674;37.468;2023-10-19T04:17:44;8.02;;;2.90;;
49177;SDS011;35016;55.674;37.468;2023-10-19T04:20:13;7.07;;;2.83;;
49177;SDS011;35016;55.674;37.468;2023-10-19T04:22:45;8.02;;;3.22;;
49177;SDS011;35016;55.674;37.468;2023-10-19T04:25:19;8.05;;;3.38;;
49177;SDS011;35016;55.674;37.468;2023-10-19T04:27:47;7.20;;;3.08;;
49177;SDS011;35016;55.674;37.468;2023-10-19T04:30:16;7.57;;;3.72;;
49177;SDS011;35016;55.674;37.468;2023-10-19T04:32:45;7.55;;;3.05;;
49177;SDS011;35016;55.674;37.468;2023-10-19T04:35:12;9.40;;;3.72;;
49177;SDS011;35016;55.674;37.468;2023-10-19T04:37:41;7.18;;;3.10;;
49177;SDS011;35016;55.674;37.468;2023-10-19T04:40:11;8.68;;;3.50;;
49177;SDS011;35016;55.674;37.468;2023-10-19T04:42:38;8.63;;;3.70;;
49177;SDS011;35016;55.674;37.468;2023-10-19T04:45:05;9.90;;;4.18;;
49177;SDS011;35016;55.674;37.468;2023-10-19T04:47:34;8.23;;;3.72;;
49177;SDS011;35016;55.674;37.468;2023-10-19T04:50:03;10.30;;;4.30;;
49177;SDS011;35016;55.674;37.468;2023-10-19T04:52:33;8.23;;;3.08;;
49177;SDS011;35016;55.674;37.468;2023-10-19T04:55:01;8.43;;;3.67;;
49177;SDS011;35016;55.674;37.468;2023-10-19T04:57:30;10.50;;;3.53;;
49177;SDS011;35016;55.674;37.468;2023-10-19T04:59:58;7.65;;;3.42;;
49177;SDS011;35016;55.674;37.468;2023-10-19T05:02:25;8.55;;;3.55;;
49177;SDS011;35016;55.674;37.468;2023-10-19T05:04:52;7.82;;;3.22;;
49177;SDS011;35016;55.674;37.468;2023-10-19T05:07:20;8.85;;;3.58;;
49177;SDS011;35016;55.674;37.468;2023-10-19T05:09:47;7.90;;;3.55;;
49177;SDS011;35016;55.674;37.468;2023-10-19T05:12:15;7.63;;;3.30;;
49177;SDS011;35016;55.674;37.468;2023-10-19T05:14:42;8.90;;;3.38;;
49177;SDS011;35016;55.674;37.468;2023-10-19T05:17:10;8.25;;;3.55;;
49177;SDS011;35016;55.674;37.468;2023-10-19T05:19:38;7.05;;;2.65;;
49177;SDS011;35016;55.674;37.468;2023-10-19T05:22:07;8.05;;;3.78;;
49177;SDS011;35016;55.674;37.468;2023-10-19T05:24:36;9.73;;;3.03;;
49177;SDS011;35016;55.674;37.468;2023-10-19T05:27:03;6.85;;;2.90;;
49177;SDS011;35016;55.674;37.468;2023-10-19T05:29:31;7.72;;;3.05;;
49177;SDS011;35016;55.674;37.468;2023-10-19T05:32:02;5.97;;;2.72;;
49177;SDS011;35016;55.674;37.468;2023-10-19T05:34:30;7.95;;;3.20;;
49177;SDS011;35016;55.674;37.468;2023-10-19T05:37:00;8.52;;;3.00;;
49177;SDS011;35016;55.674;37.468;2023-10-19T05:39:30;8.00;;;3.45;;
49177;SDS011;35016;55.674;37.468;2023-10-19T05:41:58;8.25;;;3.55;;
49177;SDS011;35016;55.674;37.468;2023-10-19T05:44:28;6.88;;;2.80;;
49177;SDS011;35016;55.674;37.468;2023-10-19T05:46:58;7.93;;;3.42;;
49177;SDS011;35016;55.674;37.468;2023-10-19T05:49:26;8.50;;;3.13;;
49177;SDS011;35016;55.674;37.468;2023-10-19T05:51:56;8.20;;;3.25;;
49177;SDS011;35016;55.674;37.468;2023-10-19T05:54:23;9.05;;;4.07;;
49177;SDS011;35016;55.674;37.468;2023-10-19T05:56:51;7.20;;;2.72;;
49177;SDS011;35016;55.674;37.468;2023-10-19T05:59:19;6.68;;;2.78;;
49177;SDS011;35016;55.674;37.468;2023-10-19T06:01:48;9.85;;;3.42;;
49177;SDS011;35016;55.674;37.468;2023-10-19T06:04:15;8.02;;;3.55;;
49177;SDS011;35016;55.674;37.468;2023-10-19T06:06:47;8.65;;;2.95;;
49177;SDS011;35016;55.674;37.468;2023-10-19T06:09:15;7.53;;;3.33;;
49177;SDS011;35016;55.674;37.468;2023-10-19T06:11:44;6.78;;;2.20;;
49177;SDS011;35016;55.674;37.468;2023-10-19T06:14:12;6.95;;;2.75;;
49177;SDS011;35016;55.674;37.468;2023-10-19T06:16:40;8.55;;;3.65;;
49177;SDS011;35016;55.674;37.468;2023-10-19T06:19:07;6.63;;;2.47;;
49177;SDS011;35016;55.674;37.468;2023-10-19T06:21:36;6.95;;;2.95;;
49177;SDS011;35016;55.674;37.468;2023-10-19T06:24:03;6.40;;;2.45;;
49177;SDS011;35016;55.674;37.468;2023-10-19T06:26:30;6.45;;;2.65;;
49177;SDS011;35016;55.674;37.468;2023-10-19T06:28:57;7.40;;;2.95;;
49177;SDS011;35016;55.674;37.468;2023-10-19T06:31:29;6.93;;;2.85;;
49177;SDS011;35016;55.674;37.468;2023-10-19T06:33:57;6.20;;;2.53;;
49177;SDS011;35016;55.674;37.468;2023-10-19T06:36:25;6.68;;;2.50;;
49177;SDS011;35016;55.674;37.468;2023-10-19T06:38:52;8.02;;;3.15;;
49177;SDS011;35016;55.674;37.468;2023-10-19T06:41:21;7.95;;;2.92;;
49177;SDS011;35016;55.674;37.468;2023-10-19T06:43:49;8.00;;;3.22;;
49177;SDS011;35016;55.674;37.468;2023-10-19T06:46:17;8.30;;;3.25;;
49177;SDS011;35016;55.674;37.468;2023-10-19T06:48:44;18.52;;;11.02;;
49177;SDS011;35016;55.674;37.468;2023-10-19T06:51:11;9.82;;;4.38;;
49177;SDS011;35016;55.674;37.468;2023-10-19T06:53:39;9.27;;;4.25;;
49177;SDS011;35016;55.674;37.468;2023-10-19T06:56:06;8.45;;;3.90;;
49177;SDS011;35016;55.674;37.468;2023-10-19T06:58:34;8.30;;;3.72;;
49177;SDS011;35016;55.674;37.468;2023-10-19T07:01:06;7.60;;;3.30;;
49177;SDS011;35016;55.674;37.468;2023-10-19T07:03:35;8.32;;;3.75;;
49177;SDS011;35016;55.674;37.468;2023-10-19T07:06:04;7.15;;;3.13;;
49177;SDS011;35016;55.674;37.468;2023-10-19T07:08:39;8.48;;;3.55;;
49177;SDS011;35016;55.674;37.468;2023-10-19T07:11:07;8.85;;;3.55;;
49177;SDS011;35016;55.674;37.468;2023-10-19T07:13:36;8.95;;;3.28;;
49177;SDS011;35016;55.674;37.468;2023-10-19T07:16:03;8.60;;;2.88;;
49177;SDS011;35016;55.674;37.468;2023-10-19T07:18:31;7.57;;;3.25;;
49177;SDS011;35016;55.674;37.468;2023-10-19T07:20:59;8.10;;;3.30;;
49177;SDS011;35016;55.674;37.468;2023-10-19T07:23:36;7.53;;;3.15;;
49177;SDS011;35016;55.674;37.468;2023-10-19T07:26:07;8.18;;;3.33;;
49177;SDS011;35016;55.674;37.468;2023-10-19T07:28:35;7.53;;;3.10;;
49177;SDS011;35016;55.674;37.468;2023-10-19T07:31:05;8.18;;;3.10;;
49177;SDS011;35016;55.674;37.468;2023-10-19T07:33:39;8.38;;;3.83;;
49177;SDS011;35016;55.674;37.468;2023-10-19T07:36:13;7.75;;;2.83;;
49177;SDS011;35016;55.674;37.468;2023-10-19T07:38:45;8.48;;;3.08;;
49177;SDS011;35016;55.674;37.468;2023-10-19T07:41:14;8.77;;;3.13;;
49177;SDS011;35016;55.674;37.468;2023-10-19T07:43:41;8.38;;;3.08;;
49177;SDS011;35016;55.674;37.468;2023-10-19T07:46:10;8.35;;;3.22;;
49177;SDS011;35016;55.674;37.468;2023-10-19T07:48:38;7.75;;;3.22;;
49177;SDS011;35016;55.674;37.468;2023-10-19T07:51:06;9.05;;;2.85;;
49177;SDS011;35016;55.674;37.468;2023-10-19T07:53:35;6.30;;;3.00;;
49177;SDS011;35016;55.674;37.468;2023-10-19T07:56:02;6.75;;;2.88;;
49177;SDS011;35016;55.674;37.468;2023-10-19T07:58:30;8.43;;;2.97;;
49177;SDS011;35016;55.674;37.468;2023-10-19T08:00:58;6.85;;;3.00;;
49177;SDS011;35016;55.674;37.468;2023-10-19T08:03:25;7.47;;;2.85;;
49177;SDS011;35016;55.674;37.468;2023-10-19T08:05:52;5.65;;;2.20;;
49177;SDS011;35016;55.674;37.468;2023-10-19T08:08:21;7.00;;;2.60;;
49177;SDS011;35016;55.674;37.468;2023-10-19T08:10:51;7.93;;;3.35;;
49177;SDS011;35016;55.674;37.468;2023-10-19T08:13:18;7.32;;;2.40;;
49177;SDS011;35016;55.674;37.468;2023-10-19T08:15:46;7.60;;;2.95;;
49177;SDS011;35016;55.674;37.468;2023-10-19T08:18:13;6.65;;;2.30;;
49177;SDS011;35016;55.674;37.468;2023-10-19T08:20:41;7.57;;;2.67;;
49177;SDS011;35016;55.674;37.468;2023-10-19T08:23:12;5.70;;;2.00;;
49177;SDS011;35016;55.674;37.468;2023-10-19T08:25:45;6.82;;;3.05;;
49177;SDS011;35016;55.674;37.468;2023-10-19T08:28:23;7.93;;;2.80;;
49177;SDS011;35016;55.674;37.468;2023-10-19T08:30:51;7.82;;;2.85;;
49177;SDS011;35016;55.674;37.468;2023-10-19T08:33:25;5.35;;;2.13;;
49177;SDS011;35016;55.674;37.468;2023-10-19T08:35:53;7.55;;;2.90;;
49177;SDS011;35016;55.674;37.468;2023-10-19T08:38:22;5.30;;;2.25;;
49177;SDS011;35016;55.674;37.468;2023-10-19T08:40:52;6.72;;;2.38;;
49177;SDS011;35016;55.674;37.468;2023-10-19T08:43:20;7.15;;;2.67;;
49177;SDS011;35016;55.674;37.468;2023-10-19T08:45:48;6.68;;;2.30;;
49177;SDS011;35016;55.674;37.468;2023-10-19T08:48:16;6.63;;;2.65;;
49177;SDS011;35016;55.674;37.468;2023-10-19T08:50:43;7.63;;;2.80;;
49177;SDS011;35016;55.674;37.468;2023-10-19T08:53:13;7.38;;;3.10;;
49177;SDS011;35016;55.674;37.468;2023-10-19T08:55:46;7.05;;;2.83;;
49177;SDS011;35016;55.674;37.468;2023-10-19T08:58:16;6.35;;;2.60;;
49177;SDS011;35016;55.674;37.468;2023-10-19T09:00:46;8.05;;;3.17;;
49177;SDS011;35016;55.674;37.468;2023-10-19T09:03:16;7.47;;;2.60;;
49177;SDS011;35016;55.674;37.468;2023-10-19T09:05:44;6.65;;;2.70;;
49177;SDS011;35016;55.674;37.468;2023-10-19T09:08:15;6.18;;;2.40;;
49177;SDS011;35016;55.674;37.468;2023-10-19T09:10:45;7.38;;;2.70;;
49177;SDS011;35016;55.674;37.468;2023-10-19T09:13:13;7.25;;;2.80;;
49177;SDS011;35016;55.674;37.468;2023-10-19T09:15:47;6.72;;;2.17;;
49177;SDS011;35016;55.674;37.468;2023-10-19T09:18:22;6.10;;;2.33;;
49177;SDS011;35016;55.674;37.468;2023-10-19T09:20:57;6.68;;;2.10;;
49177;SDS011;35016;55.674;37.468;2023-10-19T09:23:35;5.60;;;2.22;;
49177;SDS011;35016;55.674;37.468;2023-10-19T09:26:04;5.63;;;2.05;;
49177;SDS011;35016;55.674;37.468;2023-10-19T09:28:35;6.18;;;2.42;;
49177;SDS011;35016;55.674;37.468;2023-10-19T09:31:05;7.13;;;2.63;;
49177;SDS011;35016;55.674;37.468;2023-10-19T09:33:38;7.20;;;3.10;;
49177;SDS011;35016;55.674;37.468;2023-10-19T09:36:07;8.05;;;2.90;;
49177;SDS011;35016;55.674;37.468;2023-10-19T09:38:47;5.93;;;2.08;;
49177;SDS011;35016;55.674;37.468;2023-10-19T09:41:24;6.15;;;2.13;;
49177;SDS011;35016;55.674;37.468;2023-10-19T09:44:04;6.30;;;2.13;;
49177;SDS011;35016;55.674;37.468;2023-10-19T09:46:37;6.32;;;2.08;;
49177;SDS011;35016;55.674;37.468;2023-10-19T09:49:07;5.93;;;2.30;;
49177;SDS011;35016;55.674;37.468;2023-10-19T09:51:38;7.32;;;3.15;;
49177;SDS011;35016;55.674;37.468;2023-10-19T09:56:38;6.15;;;2.00;;
49177;SDS011;35016;55.674;37.468;2023-10-19T10:04:38;5.35;;;1.85;;
49177;SDS011;35016;55.674;37.468;2023-10-19T10:07:07;5.15;;;1.98;;
49177;SDS011;35016;55.674;37.468;2023-10-19T10:09:39;6.38;;;2.17;;
49177;SDS011;35016;55.674;37.468;2023-10-19T10:12:21;6.32;;;2.17;;
49177;SDS011;35016;55.674;37.468;2023-10-19T10:14:57;6.57;;;2.15;;
49177;SDS011;35016;55.674;37.468;2023-10-19T10:17:26;6.50;;;1.75;;
49177;SDS011;35016;55.674;37.468;2023-10-19T10:20:28;5.70;;;2.13;;
49177;SDS011;35016;55.674;37.468;2023-10-19T10:22:44;6.35;;;2.38;;
49177;SDS011;35016;55.674;37.468;2023-10-19T10:25:32;7.10;;;2.55;;
49177;SDS011;35016;55.674;37.468;2023-10-19T10:28:03;7.70;;;2.85;;
49177;SDS011;35016;55.674;37.468;2023-10-19T10:30:30;6.95;;;2.38;;
49177;SDS011;35016;55.674;37.468;2023-10-19T10:32:58;6.18;;;2.20;;
49177;SDS011;35016;55.674;37.468;2023-10-19T10:38:03;6.13;;;1.95;;
49177;SDS011;35016;55.674;37.468;2023-10-19T10:40:45;7.13;;;2.42;;
49177;SDS011;35016;55.674;37.468;2023-10-19T10:43:12;5.75;;;2.20;;
49177;SDS011;35016;55.674;37.468;2023-10-19T10:45:40;7.22;;;2.33;;
49177;SDS011;35016;55.674;37.468;2023-10-19T10:48:14;6.80;;;2.25;;
49177;SDS011;35016;55.674;37.468;2023-10-19T10:50:46;5.43;;;1.60;;
49177;SDS011;35016;55.674;37.468;2023-10-19T10:53:13;7.47;;;2.00;;
49177;SDS011;35016;55.674;37.468;2023-10-19T10:55:45;4.88;;;1.73;;
49177;SDS011;35016;55.674;37.468;2023-10-19T10:58:15;5.65;;;1.77;;
49177;SDS011;35016;55.674;37.468;2023-10-19T11:00:46;5.60;;;1.98;;
49177;SDS011;35016;55.674;37.468;2023-10-19T11:03:16;5.57;;;2.17;;
49177;SDS011;35016;55.674;37.468;2023-10-19T11:05:43;7.45;;;2.28;;
49177;SDS011;35016;55.674;37.468;2023-10-19T11:08:13;6.20;;;2.28;;
49177;SDS011;35016;55.674;37.468;2023-10-19T11:10:45;6.20;;;1.95;;
49177;SDS011;35016;55.674;37.468;2023-10-19T11:13:17;5.90;;;1.67;;
49177;SDS011;35016;55.674;37.468;2023-10-19T11:15:54;5.18;;;1.80;;
49177;SDS011;35016;55.674;37.468;2023-10-19T11:18:29;3.80;;;1.38;;
49177;SDS011;35016;55.674;37.468;2023-10-19T11:21:00;5.47;;;1.67;;
49177;SDS011;35016;55.674;37.468;2023-10-19T11:26:10;4.30;;;1.40;;
49177;SDS011;35016;55.674;37.468;2023-10-19T11:28:38;4.45;;;1.38;;
49177;SDS011;35016;55.674;37.468;2023-10-19T11:31:10;3.83;;;1.15;;
49177;SDS011;35016;55.674;37.468;2023-10-19T11:33:45;4.85;;;1.58;;
49177;SDS011;35016;55.674;37.468;2023-10-19T11:36:17;5.15;;;1.60;;
49177;SDS011;35016;55.674;37.468;2023-10-19T11:38:49;5.30;;;1.95;;
49177;SDS011;35016;55.674;37.468;2023-10-19T11:41:21;5.47;;;1.60;;
49177;SDS011;35016;55.674;37.468;2023-10-19T11:43:49;5.55;;;2.08;;
49177;SDS011;35016;55.674;37.468;2023-10-19T11:46:17;5.00;;;1.67;;
49177;SDS011;35016;55.674;37.468;2023-10-19T11:48:45;5.45;;;1.58;;
49177;SDS011;35016;55.674;37.468;2023-10-19T11:51:13;4.53;;;1.60;;
49177;SDS011;35016;55.674;37.468;2023-10-19T11:53:42;4.60;;;2.00;;
49177;SDS011;35016;55.674;37.468;2023-10-19T11:56:10;5.30;;;1.75;;
49177;SDS011;35016;55.674;37.468;2023-10-19T11:58:40;6.18;;;1.98;;
49177;SDS011;35016;55.674;37.468;2023-10-19T12:01:10;5.95;;;2.30;;
49177;SDS011;35016;55.674;37.468;2023-10-19T12:03:44;3.97;;;1.63;;
49177;SDS011;35016;55.674;37.468;2023-10-19T12:06:16;6.63;;;1.80;;
49177;SDS011;35016;55.674;37.468;2023-10-19T12:08:47;5.47;;;1.73;;
49177;SDS011;35016;55.674;37.468;2023-10-19T12:11:14;5.13;;;1.65;;
49177;SDS011;35016;55.674;37.468;2023-10-19T12:13:42;4.53;;;1.67;;
49177;SDS011;35016;55.674;37.468;2023-10-19T12:16:14;5.30;;;1.98;;
49177;SDS011;35016;55.674;37.468;2023-10-19T12:18:43;5.40;;;1.77;;
49177;SDS011;35016;55.674;37.468;2023-10-19T12:21:12;4.72;;;1.35;;
49177;SDS011;35016;55.674;37.468;2023-10-19T12:23:39;4.05;;;1.33;;
49177;SDS011;35016;55.674;37.468;2023-10-19T12:26:07;5.82;;;1.40;;
49177;SDS011;35016;55.674;37.468;2023-10-19T12:28:41;4.03;;;1.40;;
49177;SDS011;35016;55.674;37.468;2023-10-19T12:31:13;5.07;;;1.33;;
49177;SDS011;35016;55.674;37.468;2023-10-19T12:33:40;5.57;;;1.70;;
49177;SDS011;35016;55.674;37.468;2023-10-19T12:36:08;4.80;;;1.48;;
49177;SDS011;35016;55.674;37.468;2023-10-19T12:38:54;3.47;;;1.40;;
49177;SDS011;35016;55.674;37.468;2023-10-19T12:41:23;2.90;;;1.15;;
49177;SDS011;35016;55.674;37.468;2023-10-19T12:43:54;4.57;;;1.30;;
49177;SDS011;35016;55.674;37.468;2023-10-19T12:46:48;3.15;;;1.20;;
49177;SDS011;35016;55.674;37.468;2023-10-19T12:49:15;5.43;;;1.73;;
49177;SDS011;35016;55.674;37.468;2023-10-19T12:51:45;3.92;;;1.17;;
49177;SDS011;35016;55.674;37.468;2023-10-19T12:54:13;3.00;;;0.85;;
49177;SDS011;35016;55.674;37.468;2023-10-19T12:56:40;4.15;;;1.27;;
49177;SDS011;35016;55.674;37.468;2023-10-19T12:59:08;1.75;;;0.65;;
49177;SDS011;35016;55.674;37.468;2023-10-19T13:01:38;4.20;;;1.25;;
49177;SDS011;35016;55.674;37.468;2023-10-19T13:04:07;2.03;;;0.85;;
49177;SDS011;35016;55.674;37.468;2023-10-19T13:06:47;2.95;;;1.00;;
49177;SDS011;35016;55.674;37.468;2023-10-19T13:09:15;5.38;;;1.77;;
49177;SDS011;35016;55.674;37.468;2023-10-19T13:11:49;4.30;;;1.65;;
49177;SDS011;35016;55.674;37.468;2023-10-19T13:14:19;3.53;;;1.10;;
49177;SDS011;35016;55.674;37.468;2023-10-19T13:16:46;4.65;;;1.70;;
49177;SDS011;35016;55.674;37.468;2023-10-19T13:19:17;3.65;;;1.10;;
49177;SDS011;35016;55.674;37.468;2023-10-19T13:21:52;4.85;;;1.50;;
49177;SDS011;35016;55.674;37.468;2023-10-19T13:24:21;3.35;;;1.17;;
49177;SDS011;35016;55.674;37.468;2023-10-19T13:26:48;2.70;;;1.00;;
49177;SDS011;35016;55.674;37.468;2023-10-19T13:29:15;5.30;;;1.10;;
49177;SDS011;35016;55.674;37.468;2023-10-19T13:31:44;4.88;;;1.63;;
49177;SDS011;35016;55.674;37.468;2023-10-19T13:34:16;3.72;;;1.20;;
49177;SDS011;35016;55.674;37.468;2023-10-19T13:36:43;3.85;;;1.15;;
49177;SDS011;35016;55.674;37.468;2023-10-19T13:39:13;4.03;;;1.35;;
49177;SDS011;35016;55.674;37.468;2023-10-19T13:41:43;4.70;;;1.33;;
49177;SDS011;35016;55.674;37.468;2023-10-19T13:44:11;5.97;;;1.90;;
49177;SDS011;35016;55.674;37.468;2023-10-19T13:46:38;5.57;;;1.60;;
49177;SDS011;35016;55.674;37.468;2023-10-19T13:49:06;7.45;;;1.98;;
49177;SDS011;35016;55.674;37.468;2023-10-19T13:51:33;4.82;;;1.67;;
49177;SDS011;35016;55.674;37.468;2023-10-19T13:54:00;4.32;;;1.30;;
49177;SDS011;35016;55.674;37.468;2023-10-19T13:56:28;8.65;;;2.20;;
49177;SDS011;35016;55.674;37.468;2023-10-19T13:58:55;5.00;;;1.92;;
49177;SDS011;35016;55.674;37.468;2023-10-19T14:01:22;5.45;;;1.95;;
49177;SDS011;35016;55.674;37.468;2023-10-19T14:03:52;6.65;;;2.42;;
49177;SDS011;35016;55.674;37.468;2023-10-19T14:06:22;5.18;;;1.70;;
49177;SDS011;35016;55.674;37.468;2023-10-19T14:08:51;7.93;;;2.38;;
49177;SDS011;35016;55.674;37.468;2023-10-19T14:11:19;5.43;;;1.85;;
49177;SDS011;35016;55.674;37.468;2023-10-19T14:13:49;5.85;;;1.98;;
49177;SDS011;35016;55.674;37.468;2023-10-19T14:16:18;7.00;;;2.50;;
49177;SDS011;35016;55.674;37.468;2023-10-19T14:18:46;5.85;;;2.22;;
49177;SDS011;35016;55.674;37.468;2023-10-19T14:21:17;7.70;;;2.05;;
49177;SDS011;35016;55.674;37.468;2023-10-19T14:23:47;4.78;;;1.63;;
49177;SDS011;35016;55.674;37.468;2023-10-19T14:26:15;4.93;;;1.92;;
49177;SDS011;35016;55.674;37.468;2023-10-19T14:28:43;6.10;;;1.88;;
49177;SDS011;35016;55.674;37.468;2023-10-19T14:31:10;5.28;;;1.80;;
49177;SDS011;35016;55.674;37.468;2023-10-19T14:33:39;6.80;;;2.30;;
49177;SDS011;35016;55.674;37.468;2023-10-19T14:36:06;8.45;;;2.45;;
49177;SDS011;35016;55.674;37.468;2023-10-19T14:38:34;6.10;;;2.35;;
49177;SDS011;35016;55.674;37.468;2023-10-19T14:41:03;6.72;;;2.17;;
49177;SDS011;35016;55.674;37.468;2023-10-19T14:43:32;6.18;;;2.38;;
49177;SDS011;35016;55.674;37.468;2023-10-19T14:46:00;8.90;;;3.20;;
49177;SDS011;35016;55.674;37.468;2023-10-19T14:48:28;8.15;;;3.35;;
49177;SDS011;35016;55.674;37.468;2023-10-19T14:50:56;9.35;;;3.45;;
49177;SDS011;35016;55.674;37.468;2023-10-19T14:53:25;6.68;;;2.47;;
49177;SDS011;35016;55.674;37.468;2023-10-19T14:55:56;8.35;;;3.78;;
49177;SDS011;35016;55.674;37.468;2023-10-19T14:58:27;7.75;;;3.13;;
49177;SDS011;35016;55.674;37.468;2023-10-19T15:00:56;7.78;;;3.15;;
49177;SDS011;35016;55.674;37.468;2023-10-19T15:03:24;7.35;;;3.03;;
49177;SDS011;35016;55.674;37.468;2023-10-19T15:05:52;8.57;;;3.05;;